sensor_id;sensor_type;location;lat;lon;timestamp;P1;durP1;ratioP1;P2;durP2;ratioP2
11090;SDS011;5599;52.210;21.046;2023-09-07T00:00:43;20.20;;;8.73;;
11090;SDS011;5599;52.210;21.046;2023-09-07T00:03:12;15.25;;;9.65;;
11090;SDS011;5599;52.210;21.046;2023-09-07T00:05:42;15.98;;;9.70;;
11090;SDS011;5599;52.210;21.046;2023-09-07T00:08:11;16.17;;;9.70;;
11090;SDS011;5599;52.210;21.046;2023-09-07T00:10:42;20.90;;;9.95;;
11090;SDS011;5599;52.210;21.046;2023-09-07T00:13:11;18.17;;;10.10;;
11090;SDS011;5599;52.210;21.046;2023-09-07T00:15:40;17.77;;;9.50;;
11090;SDS011;5599;52.210;21.046;2023-09-07T00:18:10;15.68;;;9.60;;
11090;SDS011;5599;52.210;21.046;2023-09-07T00:20:39;15.82;;;9.98;;
11090;SDS011;5599;52.210;21.046;2023-09-07T00:23:08;16.58;;;9.30;;
11090;SDS011;5599;52.210;21.046;2023-09-07T00:25:39;18.48;;;9.70;;
11090;SDS011;5599;52.210;21.046;2023-09-07T00:28:08;16.67;;;10.57;;
11090;SDS011;5599;52.210;21.046;2023-09-07T00:30:38;16.77;;;9.82;;
11090;SDS011;5599;52.210;21.046;2023-09-07T00:33:07;12.13;;;9.50;;
11090;SDS011;5599;52.210;21.046;2023-09-07T00:35:37;13.80;;;9.50;;
11090;SDS011;5599;52.210;21.046;2023-09-07T00:38:06;15.48;;;9.82;;
11090;SDS011;5599;52.210;21.046;2023-09-07T00:40:35;15.38;;;10.70;;
11090;SDS011;5599;52.210;21.046;2023-09-07T00:43:06;21.15;;;10.10;;
11090;SDS011;5599;52.210;21.046;2023-09-07T00:45:35;21.95;;;10.52;;
11090;SDS011;5599;52.210;21.046;2023-09-07T00:48:05;18.90;;;10.18;;
11090;SDS011;5599;52.210;21.046;2023-09-07T00:50:34;17.80;;;10.20;;
11090;SDS011;5599;52.210;21.046;2023-09-07T00:53:04;17.33;;;10.07;;
11090;SDS011;5599;52.210;21.046;2023-09-07T00:55:34;16.75;;;9.57;;
11090;SDS011;5599;52.210;21.046;2023-09-07T00:58:07;15.00;;;10.60;;
11090;SDS011;5599;52.210;21.046;2023-09-07T01:00:38;16.27;;;9.55;;
11090;SDS011;5599;52.210;21.046;2023-09-07T01:03:08;15.55;;;10.15;;
11090;SDS011;5599;52.210;21.046;2023-09-07T01:05:41;15.77;;;10.00;;
11090;SDS011;5599;52.210;21.046;2023-09-07T01:08:17;17.80;;;10.02;;
11090;SDS011;5599;52.210;21.046;2023-09-07T01:10:51;14.43;;;9.20;;
11090;SDS011;5599;52.210;21.046;2023-09-07T01:13:22;14.35;;;9.25;;
11090;SDS011;5599;52.210;21.046;2023-09-07T01:15:51;10.98;;;8.75;;
11090;SDS011;5599;52.210;21.046;2023-09-07T01:18:21;17.42;;;10.57;;
11090;SDS011;5599;52.210;21.046;2023-09-07T01:20:52;19.15;;;10.13;;
11090;SDS011;5599;52.210;21.046;2023-09-07T01:23:24;16.10;;;9.80;;
11090;SDS011;5599;52.210;21.046;2023-09-07T01:25:53;13.70;;;9.80;;
11090;SDS011;5599;52.210;21.046;2023-09-07T01:28:23;13.15;;;9.23;;
11090;SDS011;5599;52.210;21.046;2023-09-07T01:30:52;13.77;;;10.90;;
11090;SDS011;5599;52.210;21.046;2023-09-07T01:33:21;13.50;;;9.85;;
11090;SDS011;5599;52.210;21.046;2023-09-07T01:35:51;11.15;;;9.35;;
11090;SDS011;5599;52.210;21.046;2023-09-07T01:38:21;12.52;;;8.18;;
11090;SDS011;5599;52.210;21.046;2023-09-07T01:40:51;12.70;;;8.73;;
11090;SDS011;5599;52.210;21.046;2023-09-07T01:43:21;10.73;;;9.20;;
11090;SDS011;5599;52.210;21.046;2023-09-07T01:45:50;12.45;;;8.10;;
11090;SDS011;5599;52.210;21.046;2023-09-07T01:48:19;9.82;;;8.00;;
11090;SDS011;5599;52.210;21.046;2023-09-07T01:50:51;13.50;;;8.70;;
11090;SDS011;5599;52.210;21.046;2023-09-07T01:53:21;14.98;;;7.85;;
11090;SDS011;5599;52.210;21.046;2023-09-07T01:55:54;9.95;;;8.30;;
11090;SDS011;5599;52.210;21.046;2023-09-07T01:58:26;10.90;;;8.38;;
11090;SDS011;5599;52.210;21.046;2023-09-07T02:00:56;9.02;;;8.07;;
11090;SDS011;5599;52.210;21.046;2023-09-07T02:03:26;11.52;;;8.25;;
11090;SDS011;5599;52.210;21.046;2023-09-07T02:05:56;9.18;;;7.97;;
11090;SDS011;5599;52.210;21.046;2023-09-07T02:08:25;8.82;;;7.93;;
11090;SDS011;5599;52.210;21.046;2023-09-07T02:10:56;10.57;;;8.38;;
11090;SDS011;5599;52.210;21.046;2023-09-07T02:13:25;10.27;;;7.65;;
11090;SDS011;5599;52.210;21.046;2023-09-07T02:15:55;11.35;;;8.00;;
11090;SDS011;5599;52.210;21.046;2023-09-07T02:18:25;14.68;;;8.35;;
11090;SDS011;5599;52.210;21.046;2023-09-07T02:20:54;10.70;;;7.93;;
11090;SDS011;5599;52.210;21.046;2023-09-07T02:23:29;13.65;;;8.43;;
11090;SDS011;5599;52.210;21.046;2023-09-07T02:26:00;10.13;;;8.20;;
11090;SDS011;5599;52.210;21.046;2023-09-07T02:28:29;9.85;;;7.70;;
11090;SDS011;5599;52.210;21.046;2023-09-07T02:31:02;14.00;;;7.70;;
11090;SDS011;5599;52.210;21.046;2023-09-07T02:33:32;12.00;;;8.05;;
11090;SDS011;5599;52.210;21.046;2023-09-07T02:36:03;10.07;;;7.38;;
11090;SDS011;5599;52.210;21.046;2023-09-07T02:38:33;11.85;;;7.63;;
11090;SDS011;5599;52.210;21.046;2023-09-07T02:41:03;10.57;;;7.88;;
11090;SDS011;5599;52.210;21.046;2023-09-07T02:43:33;10.55;;;7.60;;
11090;SDS011;5599;52.210;21.046;2023-09-07T02:46:02;10.50;;;7.65;;
11090;SDS011;5599;52.210;21.046;2023-09-07T02:48:32;11.50;;;7.88;;
11090;SDS011;5599;52.210;21.046;2023-09-07T02:51:01;11.48;;;7.95;;
11090;SDS011;5599;52.210;21.046;2023-09-07T02:53:31;16.65;;;8.43;;
11090;SDS011;5599;52.210;21.046;2023-09-07T02:56:00;13.38;;;8.23;;
11090;SDS011;5599;52.210;21.046;2023-09-07T02:58:33;10.82;;;8.02;;
11090;SDS011;5599;52.210;21.046;2023-09-07T03:01:05;11.95;;;8.57;;
11090;SDS011;5599;52.210;21.046;2023-09-07T03:03:36;12.23;;;8.52;;
11090;SDS011;5599;52.210;21.046;2023-09-07T03:06:09;12.68;;;8.40;;
11090;SDS011;5599;52.210;21.046;2023-09-07T03:08:42;11.30;;;7.97;;
11090;SDS011;5599;52.210;21.046;2023-09-07T03:11:11;13.93;;;8.88;;
11090;SDS011;5599;52.210;21.046;2023-09-07T03:13:42;13.98;;;7.80;;
11090;SDS011;5599;52.210;21.046;2023-09-07T03:16:12;13.05;;;9.27;;
11090;SDS011;5599;52.210;21.046;2023-09-07T03:18:41;16.77;;;8.00;;
11090;SDS011;5599;52.210;21.046;2023-09-07T03:21:11;10.73;;;7.88;;
11090;SDS011;5599;52.210;21.046;2023-09-07T03:23:42;15.95;;;8.27;;
11090;SDS011;5599;52.210;21.046;2023-09-07T03:26:14;12.45;;;8.30;;
11090;SDS011;5599;52.210;21.046;2023-09-07T03:28:44;10.38;;;8.25;;
11090;SDS011;5599;52.210;21.046;2023-09-07T03:31:14;11.95;;;8.10;;
11090;SDS011;5599;52.210;21.046;2023-09-07T03:33:44;11.45;;;7.88;;
11090;SDS011;5599;52.210;21.046;2023-09-07T03:36:14;14.20;;;8.40;;
11090;SDS011;5599;52.210;21.046;2023-09-07T03:38:43;13.00;;;8.52;;
11090;SDS011;5599;52.210;21.046;2023-09-07T03:41:13;11.68;;;8.50;;
11090;SDS011;5599;52.210;21.046;2023-09-07T03:43:42;15.73;;;8.32;;
11090;SDS011;5599;52.210;21.046;2023-09-07T03:46:13;12.50;;;9.05;;
11090;SDS011;5599;52.210;21.046;2023-09-07T03:48:42;12.07;;;8.52;;
11090;SDS011;5599;52.210;21.046;2023-09-07T03:51:11;11.02;;;9.43;;
11090;SDS011;5599;52.210;21.046;2023-09-07T03:53:41;15.55;;;8.98;;
11090;SDS011;5599;52.210;21.046;2023-09-07T03:56:10;16.35;;;9.10;;
11090;SDS011;5599;52.210;21.046;2023-09-07T03:58:39;10.13;;;7.97;;
11090;SDS011;5599;52.210;21.046;2023-09-07T04:01:10;14.35;;;9.00;;
11090;SDS011;5599;52.210;21.046;2023-09-07T04:03:39;18.40;;;9.65;;
11090;SDS011;5599;52.210;21.046;2023-09-07T04:06:09;11.50;;;9.20;;
11090;SDS011;5599;52.210;21.046;2023-09-07T04:08:38;10.25;;;8.65;;
11090;SDS011;5599;52.210;21.046;2023-09-07T04:11:07;14.52;;;9.82;;
11090;SDS011;5599;52.210;21.046;2023-09-07T04:13:36;12.15;;;8.93;;
11090;SDS011;5599;52.210;21.046;2023-09-07T04:16:09;14.00;;;9.32;;
11090;SDS011;5599;52.210;21.046;2023-09-07T04:18:38;11.95;;;9.25;;
11090;SDS011;5599;52.210;21.046;2023-09-07T04:21:10;12.93;;;9.75;;
11090;SDS011;5599;52.210;21.046;2023-09-07T04:23:39;17.45;;;8.40;;
11090;SDS011;5599;52.210;21.046;2023-09-07T04:26:09;11.02;;;9.27;;
11090;SDS011;5599;52.210;21.046;2023-09-07T04:28:40;19.52;;;9.93;;
11090;SDS011;5599;52.210;21.046;2023-09-07T04:31:11;18.10;;;9.52;;
11090;SDS011;5599;52.210;21.046;2023-09-07T04:33:40;16.55;;;8.70;;
11090;SDS011;5599;52.210;21.046;2023-09-07T04:36:10;16.52;;;9.38;;
11090;SDS011;5599;52.210;21.046;2023-09-07T04:38:45;19.17;;;9.57;;
11090;SDS011;5599;52.210;21.046;2023-09-07T04:41:14;12.38;;;8.95;;
11090;SDS011;5599;52.210;21.046;2023-09-07T04:43:44;19.08;;;9.05;;
11090;SDS011;5599;52.210;21.046;2023-09-07T04:46:14;16.88;;;9.73;;
11090;SDS011;5599;52.210;21.046;2023-09-07T04:48:47;15.43;;;9.23;;
11090;SDS011;5599;52.210;21.046;2023-09-07T04:51:17;16.88;;;8.80;;
11090;SDS011;5599;52.210;21.046;2023-09-07T04:53:47;13.15;;;9.27;;
11090;SDS011;5599;52.210;21.046;2023-09-07T04:56:19;16.52;;;9.07;;
11090;SDS011;5599;52.210;21.046;2023-09-07T04:58:49;12.25;;;8.60;;
11090;SDS011;5599;52.210;21.046;2023-09-07T05:01:21;16.95;;;9.13;;
11090;SDS011;5599;52.210;21.046;2023-09-07T05:03:52;15.68;;;8.82;;
11090;SDS011;5599;52.210;21.046;2023-09-07T05:06:22;14.20;;;9.05;;
11090;SDS011;5599;52.210;21.046;2023-09-07T05:08:53;16.35;;;8.73;;
11090;SDS011;5599;52.210;21.046;2023-09-07T05:11:22;19.58;;;10.25;;
11090;SDS011;5599;52.210;21.046;2023-09-07T05:13:51;21.60;;;9.68;;
11090;SDS011;5599;52.210;21.046;2023-09-07T05:16:22;17.42;;;10.15;;
11090;SDS011;5599;52.210;21.046;2023-09-07T05:18:52;20.05;;;9.65;;
11090;SDS011;5599;52.210;21.046;2023-09-07T05:21:21;15.40;;;9.27;;
11090;SDS011;5599;52.210;21.046;2023-09-07T05:23:51;14.00;;;9.30;;
11090;SDS011;5599;52.210;21.046;2023-09-07T05:26:21;14.35;;;10.32;;
11090;SDS011;5599;52.210;21.046;2023-09-07T05:28:52;15.20;;;10.23;;
11090;SDS011;5599;52.210;21.046;2023-09-07T05:31:23;16.38;;;10.68;;
11090;SDS011;5599;52.210;21.046;2023-09-07T05:33:52;14.90;;;10.55;;
11090;SDS011;5599;52.210;21.046;2023-09-07T05:36:21;19.67;;;12.15;;
11090;SDS011;5599;52.210;21.046;2023-09-07T05:38:50;19.23;;;11.73;;
11090;SDS011;5599;52.210;21.046;2023-09-07T05:41:20;16.02;;;11.57;;
11090;SDS011;5599;52.210;21.046;2023-09-07T05:43:49;16.30;;;11.90;;
11090;SDS011;5599;52.210;21.046;2023-09-07T05:46:18;15.88;;;12.93;;
11090;SDS011;5599;52.210;21.046;2023-09-07T05:48:49;20.17;;;13.27;;
11090;SDS011;5599;52.210;21.046;2023-09-07T05:51:19;21.58;;;13.70;;
11090;SDS011;5599;52.210;21.046;2023-09-07T05:53:48;13.80;;;12.15;;
11090;SDS011;5599;52.210;21.046;2023-09-07T05:56:17;15.80;;;14.15;;
11090;SDS011;5599;52.210;21.046;2023-09-07T05:58:46;17.67;;;13.27;;
11090;SDS011;5599;52.210;21.046;2023-09-07T06:01:15;23.38;;;13.40;;
11090;SDS011;5599;52.210;21.046;2023-09-07T06:03:45;16.90;;;14.13;;
11090;SDS011;5599;52.210;21.046;2023-09-07T06:06:15;16.15;;;14.45;;
11090;SDS011;5599;52.210;21.046;2023-09-07T06:08:45;21.75;;;14.18;;
11090;SDS011;5599;52.210;21.046;2023-09-07T06:11:14;22.38;;;13.77;;
11090;SDS011;5599;52.210;21.046;2023-09-07T06:13:43;20.60;;;14.38;;
11090;SDS011;5599;52.210;21.046;2023-09-07T06:16:14;15.68;;;14.05;;
11090;SDS011;5599;52.210;21.046;2023-09-07T06:18:43;19.23;;;14.18;;
11090;SDS011;5599;52.210;21.046;2023-09-07T06:21:13;19.35;;;13.65;;
11090;SDS011;5599;52.210;21.046;2023-09-07T06:23:44;15.57;;;13.98;;
11090;SDS011;5599;52.210;21.046;2023-09-07T06:26:14;22.60;;;14.32;;
11090;SDS011;5599;52.210;21.046;2023-09-07T06:28:45;18.40;;;14.68;;
11090;SDS011;5599;52.210;21.046;2023-09-07T06:31:15;19.52;;;14.52;;
11090;SDS011;5599;52.210;21.046;2023-09-07T06:33:46;19.00;;;14.07;;
11090;SDS011;5599;52.210;21.046;2023-09-07T06:36:15;18.52;;;12.98;;
11090;SDS011;5599;52.210;21.046;2023-09-07T06:39:01;17.42;;;13.52;;
11090;SDS011;5599;52.210;21.046;2023-09-07T06:41:31;18.10;;;13.07;;
11090;SDS011;5599;52.210;21.046;2023-09-07T06:44:01;16.98;;;11.40;;
11090;SDS011;5599;52.210;21.046;2023-09-07T06:46:31;16.52;;;11.85;;
11090;SDS011;5599;52.210;21.046;2023-09-07T06:49:00;18.45;;;13.30;;
11090;SDS011;5599;52.210;21.046;2023-09-07T06:51:30;16.15;;;12.57;;
11090;SDS011;5599;52.210;21.046;2023-09-07T06:53:59;19.98;;;12.85;;
11090;SDS011;5599;52.210;21.046;2023-09-07T06:56:31;13.27;;;11.93;;
11090;SDS011;5599;52.210;21.046;2023-09-07T06:59:02;15.55;;;12.45;;
11090;SDS011;5599;52.210;21.046;2023-09-07T07:01:31;17.42;;;11.95;;
11090;SDS011;5599;52.210;21.046;2023-09-07T07:04:01;14.73;;;12.77;;
11090;SDS011;5599;52.210;21.046;2023-09-07T07:06:31;16.35;;;11.80;;
11090;SDS011;5599;52.210;21.046;2023-09-07T07:09:01;15.00;;;11.90;;
11090;SDS011;5599;52.210;21.046;2023-09-07T07:11:31;15.40;;;11.30;;
11090;SDS011;5599;52.210;21.046;2023-09-07T07:14:00;18.63;;;12.02;;
11090;SDS011;5599;52.210;21.046;2023-09-07T07:16:30;16.75;;;11.43;;
11090;SDS011;5599;52.210;21.046;2023-09-07T07:18:59;12.93;;;11.73;;
11090;SDS011;5599;52.210;21.046;2023-09-07T07:21:28;15.00;;;11.73;;
11090;SDS011;5599;52.210;21.046;2023-09-07T07:23:58;16.15;;;10.30;;
11090;SDS011;5599;52.210;21.046;2023-09-07T07:26:28;11.82;;;9.50;;
11090;SDS011;5599;52.210;21.046;2023-09-07T07:28:58;14.40;;;10.65;;
11090;SDS011;5599;52.210;21.046;2023-09-07T07:31:27;15.98;;;10.13;;
11090;SDS011;5599;52.210;21.046;2023-09-07T07:33:57;11.52;;;9.80;;
11090;SDS011;5599;52.210;21.046;2023-09-07T07:36:26;11.13;;;9.73;;
11090;SDS011;5599;52.210;21.046;2023-09-07T07:38:59;10.93;;;9.82;;
11090;SDS011;5599;52.210;21.046;2023-09-07T07:41:31;13.70;;;11.00;;
11090;SDS011;5599;52.210;21.046;2023-09-07T07:44:00;12.18;;;8.82;;
11090;SDS011;5599;52.210;21.046;2023-09-07T07:46:30;14.32;;;10.80;;
11090;SDS011;5599;52.210;21.046;2023-09-07T07:48:59;14.00;;;11.63;;
11090;SDS011;5599;52.210;21.046;2023-09-07T07:51:29;12.98;;;11.75;;
11090;SDS011;5599;52.210;21.046;2023-09-07T07:53:59;11.43;;;10.23;;
11090;SDS011;5599;52.210;21.046;2023-09-07T07:56:30;13.35;;;8.60;;
11090;SDS011;5599;52.210;21.046;2023-09-07T07:59:01;12.68;;;9.65;;
11090;SDS011;5599;52.210;21.046;2023-09-07T08:01:30;11.80;;;10.60;;
11090;SDS011;5599;52.210;21.046;2023-09-07T08:04:01;13.52;;;11.02;;
11090;SDS011;5599;52.210;21.046;2023-09-07T08:06:32;21.60;;;12.57;;
11090;SDS011;5599;52.210;21.046;2023-09-07T08:09:02;13.85;;;12.00;;
11090;SDS011;5599;52.210;21.046;2023-09-07T08:11:33;14.48;;;12.25;;
11090;SDS011;5599;52.210;21.046;2023-09-07T08:14:02;12.27;;;10.43;;
11090;SDS011;5599;52.210;21.046;2023-09-07T08:16:31;13.95;;;10.70;;
11090;SDS011;5599;52.210;21.046;2023-09-07T08:19:01;15.93;;;10.93;;
11090;SDS011;5599;52.210;21.046;2023-09-07T08:21:31;12.75;;;10.48;;
11090;SDS011;5599;52.210;21.046;2023-09-07T08:24:00;12.13;;;10.60;;
11090;SDS011;5599;52.210;21.046;2023-09-07T08:26:30;12.00;;;9.57;;
11090;SDS011;5599;52.210;21.046;2023-09-07T08:29:07;12.20;;;10.38;;
11090;SDS011;5599;52.210;21.046;2023-09-07T08:31:38;16.05;;;9.73;;
11090;SDS011;5599;52.210;21.046;2023-09-07T08:34:07;16.13;;;10.60;;
11090;SDS011;5599;52.210;21.046;2023-09-07T08:36:38;12.48;;;9.50;;
11090;SDS011;5599;52.210;21.046;2023-09-07T08:39:07;14.75;;;9.70;;
11090;SDS011;5599;52.210;21.046;2023-09-07T08:41:41;15.07;;;9.90;;
11090;SDS011;5599;52.210;21.046;2023-09-07T08:44:27;18.63;;;10.25;;
11090;SDS011;5599;52.210;21.046;2023-09-07T08:46:58;15.63;;;9.75;;
11090;SDS011;5599;52.210;21.046;2023-09-07T08:49:28;21.63;;;10.10;;
11090;SDS011;5599;52.210;21.046;2023-09-07T08:51:59;17.52;;;8.20;;
11090;SDS011;5599;52.210;21.046;2023-09-07T08:54:31;19.40;;;9.48;;
11090;SDS011;5599;52.210;21.046;2023-09-07T08:57:03;19.52;;;9.35;;
11090;SDS011;5599;52.210;21.046;2023-09-07T08:59:33;22.63;;;8.77;;
11090;SDS011;5599;52.210;21.046;2023-09-07T09:02:03;17.52;;;9.25;;
11090;SDS011;5599;52.210;21.046;2023-09-07T09:04:37;11.70;;;8.32;;
11090;SDS011;5599;52.210;21.046;2023-09-07T09:07:07;16.05;;;9.27;;
11090;SDS011;5599;52.210;21.046;2023-09-07T09:09:36;16.77;;;8.77;;
11090;SDS011;5599;52.210;21.046;2023-09-07T09:12:08;9.63;;;7.88;;
11090;SDS011;5599;52.210;21.046;2023-09-07T09:14:37;12.50;;;8.70;;
11090;SDS011;5599;52.210;21.046;2023-09-07T09:17:11;12.90;;;8.48;;
11090;SDS011;5599;52.210;21.046;2023-09-07T09:19:41;14.68;;;8.05;;
11090;SDS011;5599;52.210;21.046;2023-09-07T09:22:11;20.35;;;9.25;;
11090;SDS011;5599;52.210;21.046;2023-09-07T09:24:40;12.45;;;7.93;;
11090;SDS011;5599;52.210;21.046;2023-09-07T09:27:11;11.35;;;7.45;;
11090;SDS011;5599;52.210;21.046;2023-09-07T09:29:40;15.98;;;7.53;;
11090;SDS011;5599;52.210;21.046;2023-09-07T09:32:09;19.10;;;7.65;;
11090;SDS011;5599;52.210;21.046;2023-09-07T09:34:43;16.88;;;7.68;;
11090;SDS011;5599;52.210;21.046;2023-09-07T09:37:13;9.18;;;7.22;;
11090;SDS011;5599;52.210;21.046;2023-09-07T09:39:43;10.43;;;7.70;;
11090;SDS011;5599;52.210;21.046;2023-09-07T09:42:18;9.57;;;6.97;;
11090;SDS011;5599;52.210;21.046;2023-09-07T09:44:49;11.95;;;6.32;;
11090;SDS011;5599;52.210;21.046;2023-09-07T09:47:19;9.30;;;6.50;;
11090;SDS011;5599;52.210;21.046;2023-09-07T09:49:50;9.48;;;6.50;;
11090;SDS011;5599;52.210;21.046;2023-09-07T09:52:20;10.88;;;6.82;;
11090;SDS011;5599;52.210;21.046;2023-09-07T09:54:52;8.90;;;5.93;;
11090;SDS011;5599;52.210;21.046;2023-09-07T09:57:23;8.32;;;6.13;;
11090;SDS011;5599;52.210;21.046;2023-09-07T09:59:53;7.22;;;5.32;;
11090;SDS011;5599;52.210;21.046;2023-09-07T10:02:23;7.78;;;4.72;;
11090;SDS011;5599;52.210;21.046;2023-09-07T10:04:53;8.50;;;5.25;;
11090;SDS011;5599;52.210;21.046;2023-09-07T10:07:28;7.45;;;4.28;;
11090;SDS011;5599;52.210;21.046;2023-09-07T10:10:10;8.40;;;6.43;;
11090;SDS011;5599;52.210;21.046;2023-09-07T10:12:42;8.18;;;5.97;;
11090;SDS011;5599;52.210;21.046;2023-09-07T10:15:22;8.32;;;5.22;;
11090;SDS011;5599;52.210;21.046;2023-09-07T10:18:02;8.40;;;5.20;;
11090;SDS011;5599;52.210;21.046;2023-09-07T10:20:46;11.85;;;5.28;;
11090;SDS011;5599;52.210;21.046;2023-09-07T10:23:17;5.57;;;4.80;;
11090;SDS011;5599;52.210;21.046;2023-09-07T10:25:47;7.90;;;4.50;;
11090;SDS011;5599;52.210;21.046;2023-09-07T10:28:19;5.65;;;4.18;;
11090;SDS011;5599;52.210;21.046;2023-09-07T10:31:03;4.75;;;4.15;;
11090;SDS011;5599;52.210;21.046;2023-09-07T10:33:34;4.70;;;4.00;;
11090;SDS011;5599;52.210;21.046;2023-09-07T10:36:07;6.03;;;4.10;;
11090;SDS011;5599;52.210;21.046;2023-09-07T10:38:36;5.68;;;3.97;;
11090;SDS011;5599;52.210;21.046;2023-09-07T10:41:06;3.80;;;3.50;;
11090;SDS011;5599;52.210;21.046;2023-09-07T10:43:37;8.48;;;4.40;;
11090;SDS011;5599;52.210;21.046;2023-09-07T10:46:17;5.43;;;3.88;;
11090;SDS011;5599;52.210;21.046;2023-09-07T10:48:48;4.07;;;3.70;;
11090;SDS011;5599;52.210;21.046;2023-09-07T10:51:19;6.28;;;3.83;;
11090;SDS011;5599;52.210;21.046;2023-09-07T10:53:49;7.10;;;4.22;;
11090;SDS011;5599;52.210;21.046;2023-09-07T10:56:18;6.32;;;3.97;;
11090;SDS011;5599;52.210;21.046;2023-09-07T10:58:49;5.70;;;3.42;;
11090;SDS011;5599;52.210;21.046;2023-09-07T11:01:21;7.05;;;3.55;;
11090;SDS011;5599;52.210;21.046;2023-09-07T11:03:51;6.07;;;3.78;;
11090;SDS011;5599;52.210;21.046;2023-09-07T11:06:21;6.43;;;3.83;;
11090;SDS011;5599;52.210;21.046;2023-09-07T11:08:53;9.77;;;4.07;;
11090;SDS011;5599;52.210;21.046;2023-09-07T11:11:22;4.90;;;3.50;;
11090;SDS011;5599;52.210;21.046;2023-09-07T11:13:54;6.20;;;3.67;;
11090;SDS011;5599;52.210;21.046;2023-09-07T11:16:25;4.97;;;3.20;;
11090;SDS011;5599;52.210;21.046;2023-09-07T11:18:55;3.97;;;3.40;;
11090;SDS011;5599;52.210;21.046;2023-09-07T11:21:25;4.18;;;3.30;;
11090;SDS011;5599;52.210;21.046;2023-09-07T11:23:54;5.15;;;3.70;;
11090;SDS011;5599;52.210;21.046;2023-09-07T11:26:25;4.45;;;3.30;;
11090;SDS011;5599;52.210;21.046;2023-09-07T11:28:57;7.07;;;3.70;;
11090;SDS011;5599;52.210;21.046;2023-09-07T11:31:27;5.88;;;3.80;;
11090;SDS011;5599;52.210;21.046;2023-09-07T11:33:56;3.95;;;3.55;;
11090;SDS011;5599;52.210;21.046;2023-09-07T11:36:26;4.05;;;3.53;;
11090;SDS011;5599;52.210;21.046;2023-09-07T11:38:55;8.30;;;3.28;;
11090;SDS011;5599;52.210;21.046;2023-09-07T11:41:23;3.50;;;3.20;;
11090;SDS011;5599;52.210;21.046;2023-09-07T11:43:53;5.13;;;3.40;;
11090;SDS011;5599;52.210;21.046;2023-09-07T11:46:23;3.90;;;3.40;;
11090;SDS011;5599;52.210;21.046;2023-09-07T11:48:53;5.50;;;3.67;;
11090;SDS011;5599;52.210;21.046;2023-09-07T11:51:23;4.57;;;3.60;;
11090;SDS011;5599;52.210;21.046;2023-09-07T11:53:53;4.60;;;3.10;;
11090;SDS011;5599;52.210;21.046;2023-09-07T11:56:23;4.32;;;3.28;;
11090;SDS011;5599;52.210;21.046;2023-09-07T11:58:53;4.53;;;3.85;;
11090;SDS011;5599;52.210;21.046;2023-09-07T12:01:24;4.93;;;3.55;;
11090;SDS011;5599;52.210;21.046;2023-09-07T12:04:04;5.00;;;3.33;;
11090;SDS011;5599;52.210;21.046;2023-09-07T12:06:34;3.25;;;2.95;;
11090;SDS011;5599;52.210;21.046;2023-09-07T12:09:24;4.75;;;3.10;;
11090;SDS011;5599;52.210;21.046;2023-09-07T12:11:53;6.10;;;3.05;;
11090;SDS011;5599;52.210;21.046;2023-09-07T12:14:23;4.72;;;3.03;;
11090;SDS011;5599;52.210;21.046;2023-09-07T12:16:53;3.20;;;2.97;;
11090;SDS011;5599;52.210;21.046;2023-09-07T12:19:23;4.05;;;3.25;;
11090;SDS011;5599;52.210;21.046;2023-09-07T12:21:53;3.63;;;2.97;;
11090;SDS011;5599;52.210;21.046;2023-09-07T12:24:22;5.38;;;2.85;;
11090;SDS011;5599;52.210;21.046;2023-09-07T12:26:52;5.70;;;3.00;;
11090;SDS011;5599;52.210;21.046;2023-09-07T12:29:22;6.28;;;3.25;;
11090;SDS011;5599;52.210;21.046;2023-09-07T12:31:53;5.20;;;2.97;;
11090;SDS011;5599;52.210;21.046;2023-09-07T12:34:24;3.20;;;2.90;;
11090;SDS011;5599;52.210;21.046;2023-09-07T12:36:56;3.50;;;2.88;;
11090;SDS011;5599;52.210;21.046;2023-09-07T12:39:26;2.95;;;2.67;;
11090;SDS011;5599;52.210;21.046;2023-09-07T12:41:56;2.85;;;2.58;;
11090;SDS011;5599;52.210;21.046;2023-09-07T12:44:26;6.28;;;2.85;;
11090;SDS011;5599;52.210;21.046;2023-09-07T12:46:57;3.70;;;2.92;;
11090;SDS011;5599;52.210;21.046;2023-09-07T12:49:27;3.05;;;2.55;;
11090;SDS011;5599;52.210;21.046;2023-09-07T12:51:56;5.13;;;2.97;;
11090;SDS011;5599;52.210;21.046;2023-09-07T12:54:26;2.70;;;2.38;;
11090;SDS011;5599;52.210;21.046;2023-09-07T12:56:55;2.83;;;2.60;;
11090;SDS011;5599;52.210;21.046;2023-09-07T12:59:25;5.97;;;2.80;;
11090;SDS011;5599;52.210;21.046;2023-09-07T13:01:55;3.08;;;2.70;;
11090;SDS011;5599;52.210;21.046;2023-09-07T13:04:25;3.15;;;2.40;;
11090;SDS011;5599;52.210;21.046;2023-09-07T13:06:55;3.08;;;2.75;;
11090;SDS011;5599;52.210;21.046;2023-09-07T13:09:24;3.70;;;2.83;;
11090;SDS011;5599;52.210;21.046;2023-09-07T13:11:54;3.72;;;2.40;;
11090;SDS011;5599;52.210;21.046;2023-09-07T13:14:23;4.03;;;2.85;;
11090;SDS011;5599;52.210;21.046;2023-09-07T13:17:01;3.75;;;2.60;;
11090;SDS011;5599;52.210;21.046;2023-09-07T13:19:31;5.38;;;2.78;;
11090;SDS011;5599;52.210;21.046;2023-09-07T13:22:01;4.63;;;2.95;;
11090;SDS011;5599;52.210;21.046;2023-09-07T13:24:30;4.90;;;3.20;;
11090;SDS011;5599;52.210;21.046;2023-09-07T13:26:59;3.65;;;2.85;;
11090;SDS011;5599;52.210;21.046;2023-09-07T13:32:29;3.38;;;2.85;;
11090;SDS011;5599;52.210;21.046;2023-09-07T13:35:01;3.67;;;2.67;;
11090;SDS011;5599;52.210;21.046;2023-09-07T13:37:33;3.40;;;2.40;;
11090;SDS011;5599;52.210;21.046;2023-09-07T13:40:04;4.68;;;2.55;;
11090;SDS011;5599;52.210;21.046;2023-09-07T13:42:35;5.25;;;2.95;;
11090;SDS011;5599;52.210;21.046;2023-09-07T13:45:06;2.85;;;2.30;;
11090;SDS011;5599;52.210;21.046;2023-09-07T13:47:36;4.88;;;2.67;;
11090;SDS011;5599;52.210;21.046;2023-09-07T13:50:07;5.28;;;2.47;;
11090;SDS011;5599;52.210;21.046;2023-09-07T13:52:37;4.88;;;3.13;;
11090;SDS011;5599;52.210;21.046;2023-09-07T13:55:06;3.28;;;2.97;;
11090;SDS011;5599;52.210;21.046;2023-09-07T13:57:36;2.90;;;2.60;;
11090;SDS011;5599;52.210;21.046;2023-09-07T14:00:05;4.82;;;2.97;;
11090;SDS011;5599;52.210;21.046;2023-09-07T14:02:35;5.22;;;2.88;;
11090;SDS011;5599;52.210;21.046;2023-09-07T14:05:07;5.82;;;2.65;;
11090;SDS011;5599;52.210;21.046;2023-09-07T14:07:39;4.07;;;2.50;;
11090;SDS011;5599;52.210;21.046;2023-09-07T14:10:10;3.30;;;2.78;;
11090;SDS011;5599;52.210;21.046;2023-09-07T14:12:39;5.05;;;2.90;;
11090;SDS011;5599;52.210;21.046;2023-09-07T14:15:11;2.80;;;2.60;;
11090;SDS011;5599;52.210;21.046;2023-09-07T14:17:40;3.47;;;2.38;;
11090;SDS011;5599;52.210;21.046;2023-09-07T14:20:12;2.55;;;2.35;;
11090;SDS011;5599;52.210;21.046;2023-09-07T14:22:41;4.60;;;3.08;;
11090;SDS011;5599;52.210;21.046;2023-09-07T14:25:11;7.28;;;2.63;;
11090;SDS011;5599;52.210;21.046;2023-09-07T14:27:43;3.33;;;2.50;;
11090;SDS011;5599;52.210;21.046;2023-09-07T14:30:13;3.28;;;2.70;;
11090;SDS011;5599;52.210;21.046;2023-09-07T14:32:45;5.63;;;2.83;;
11090;SDS011;5599;52.210;21.046;2023-09-07T14:35:17;7.32;;;3.75;;
11090;SDS011;5599;52.210;21.046;2023-09-07T14:37:47;6.75;;;4.60;;
11090;SDS011;5599;52.210;21.046;2023-09-07T14:40:17;5.10;;;4.60;;
11090;SDS011;5599;52.210;21.046;2023-09-07T14:42:46;3.83;;;2.53;;
11090;SDS011;5599;52.210;21.046;2023-09-07T14:45:17;9.90;;;4.82;;
11090;SDS011;5599;52.210;21.046;2023-09-07T14:47:46;33.97;;;14.82;;
11090;SDS011;5599;52.210;21.046;2023-09-07T14:50:19;6.72;;;3.33;;
11090;SDS011;5599;52.210;21.046;2023-09-07T14:52:49;9.43;;;4.15;;
11090;SDS011;5599;52.210;21.046;2023-09-07T14:55:18;4.32;;;3.05;;
11090;SDS011;5599;52.210;21.046;2023-09-07T14:57:48;5.45;;;3.25;;